Time;durP1;ratioP1;P1;durP2;ratioP2;P2;SDS_P1;SDS_P2;PMS_P1;PMS_P2;Temp;Humidity;BMP_temperature;BMP_pressure;BME280_temperature;BME280_humidity;BME280_pressure;Samples;Min_cycle;Max_cycle;Signal;HPM_P1;HPM_P2
2023/08/15 00:00:50;;;;;;;71.93;67.55;;;22.30;99.90;;;;;;5013159;28;20037;-74
2023/08/15 00:03:16;;;;;;;51.47;48.08;;;22.20;99.90;;;;;;5014100;28;20057;-74
2023/08/15 00:05:42;;;;;;;77.30;72.93;;;22.20;99.90;;;;;;5013969;28;20030;-74
2023/08/15 00:08:08;;;;;;;68.07;63.92;;;22.20;99.90;;;;;;5014112;28;20037;-74
2023/08/15 00:10:34;;;;;;;95.50;90.20;;;22.10;99.90;;;;;;5013837;28;20030;-74
2023/08/15 00:13:02;;;;;;;96.22;90.53;;;22.00;99.90;;;;;;5014088;28;20033;-73
2023/08/15 00:15:34;;;;;;;77.90;73.50;;;22.00;99.90;;;;;;5012989;28;20406;-74
2023/08/15 00:18:01;;;;;;;85.95;80.70;;;21.90;99.90;;;;;;5012760;28;20037;-74
2023/08/15 00:20:27;;;;;;;122.40;115.78;;;21.90;99.90;;;;;;5013588;28;20038;-75
2023/08/15 00:22:53;;;;;;;69.63;64.90;;;21.90;99.90;;;;;;5012716;28;20038;-74
2023/08/15 00:25:19;;;;;;;97.75;92.13;;;21.80;99.90;;;;;;5013542;28;20033;-74
2023/08/15 00:27:45;;;;;;;210.77;200.00;;;21.80;99.90;;;;;;5011561;28;20045;-74
2023/08/15 00:30:11;;;;;;;88.95;84.30;;;21.80;99.90;;;;;;5011537;28;20033;-74
2023/08/15 00:32:37;;;;;;;69.53;65.57;;;21.70;99.90;;;;;;5013547;28;20037;-74
2023/08/15 00:35:04;;;;;;;88.68;83.47;;;21.70;99.90;;;;;;5013688;28;20030;-74
2023/08/15 00:37:31;;;;;;;60.65;57.00;;;21.70;99.90;;;;;;5012170;28;20042;-74
2023/08/15 00:39:57;;;;;;;53.58;49.75;;;21.70;99.90;;;;;;5013436;28;20025;-74
2023/08/15 00:42:23;;;;;;;63.15;59.20;;;21.60;99.90;;;;;;5011832;28;20038;-74
2023/08/15 00:44:49;;;;;;;51.13;47.47;;;21.70;99.90;;;;;;5012093;28;20033;-74
2023/08/15 00:47:15;;;;;;;59.05;55.53;;;21.70;99.90;;;;;;5012578;28;20454;-74
2023/08/15 00:49:42;;;;;;;52.78;49.22;;;21.70;99.90;;;;;;5013248;28;20026;-74
2023/08/15 00:52:08;;;;;;;43.28;40.17;;;21.60;99.90;;;;;;5011889;28;20403;-74
2023/08/15 00:54:34;;;;;;;65.22;60.80;;;21.70;99.90;;;;;;5012074;28;20033;-74
2023/08/15 00:57:02;;;;;;;41.20;38.20;;;21.70;99.90;;;;;;5011847;28;20041;-74
2023/08/15 00:59:28;;;;;;;41.50;37.95;;;21.70;99.90;;;;;;5011580;28;20022;-74
2023/08/15 01:01:54;;;;;;;39.47;36.53;;;21.70;99.90;;;;;;5012453;28;20491;-74
2023/08/15 01:04:21;;;;;;;39.78;36.90;;;21.70;99.90;;;;;;5012027;28;20048;-74
2023/08/15 01:06:47;;;;;;;40.85;37.72;;;21.70;99.90;;;;;;5011763;28;20479;-74
2023/08/15 01:09:13;;;;;;;37.35;34.67;;;21.70;99.90;;;;;;5011812;28;20033;-74
2023/08/15 01:12:07;;;;;;;37.22;34.30;;;21.70;99.90;;;;;;5012679;28;20030;-74
2023/08/15 01:14:46;;;;;;;32.67;30.33;;;21.70;99.90;;;;;;5012599;28;20026;-74
2023/08/15 01:17:14;;;;;;;41.22;38.63;;;21.70;99.90;;;;;;5010953;28;20069;-74
2023/08/15 01:19:46;;;;;;;65.75;61.85;;;21.70;99.90;;;;;;4995495;28;20030;-74
2023/08/15 01:22:28;;;;;;;71.03;66.70;;;21.70;99.90;;;;;;5011453;28;20029;-74
2023/08/15 01:24:54;;;;;;;43.45;40.78;;;21.70;99.90;;;;;;5012933;28;20030;-74
2023/08/15 01:27:20;;;;;;;33.15;30.33;;;21.60;99.90;;;;;;5010973;28;20037;-74
2023/08/15 01:29:46;;;;;;;31.27;28.70;;;21.60;99.90;;;;;;5011473;28;20056;-74
2023/08/15 01:32:26;;;;;;;30.85;28.67;;;21.60;99.90;;;;;;5011957;28;20413;-74
2023/08/15 01:34:56;;;;;;;31.58;29.45;;;21.60;99.90;;;;;;5011778;28;20026;-74
2023/08/15 01:37:29;;;;;;;35.03;32.40;;;21.60;99.90;;;;;;5011173;28;20034;-74
2023/08/15 01:40:00;;;;;;;37.83;34.55;;;21.60;99.90;;;;;;5011198;28;20345;-74
2023/08/15 01:42:26;;;;;;;38.75;35.55;;;21.60;99.90;;;;;;5010701;28;20033;-74
2023/08/15 01:44:53;;;;;;;45.00;41.58;;;21.60;99.90;;;;;;5011335;28;20034;-74
2023/08/15 01:47:20;;;;;;;63.38;59.45;;;21.50;99.90;;;;;;4994120;28;20045;-74
2023/08/15 01:49:46;;;;;;;48.20;44.72;;;21.50;99.90;;;;;;5011255;28;20491;-74
2023/08/15 01:52:12;;;;;;;40.47;37.30;;;21.50;99.90;;;;;;5012102;28;20057;-74
2023/08/15 01:54:38;;;;;;;36.88;34.47;;;21.50;99.90;;;;;;5012384;28;20467;-74
2023/08/15 01:57:04;;;;;;;36.92;34.42;;;21.60;99.90;;;;;;5009617;28;20053;-73
2023/08/15 01:59:30;;;;;;;43.03;39.92;;;21.60;99.90;;;;;;5010070;28;20037;-74
2023/08/15 02:01:56;;;;;;;46.95;43.72;;;21.60;99.90;;;;;;5006297;28;20505;-74
2023/08/15 02:04:22;;;;;;;45.47;42.00;;;21.60;99.90;;;;;;5009497;28;20034;-74
2023/08/15 02:06:48;;;;;;;50.65;47.08;;;21.50;99.90;;;;;;5009556;28;20471;-74
2023/08/15 02:09:14;;;;;;;57.67;54.13;;;21.40;99.90;;;;;;5010921;28;20038;-74
2023/08/15 02:11:41;;;;;;;61.25;57.20;;;21.40;99.90;;;;;;5010475;28;20030;-73
2023/08/15 02:14:07;;;;;;;57.53;53.35;;;21.40;99.90;;;;;;5010006;28;20034;-73
2023/08/15 02:16:33;;;;;;;60.03;55.70;;;21.40;99.90;;;;;;5009139;28;20038;-73
2023/08/15 02:18:59;;;;;;;46.22;43.15;;;21.40;99.90;;;;;;5010847;28;20041;-73
2023/08/15 02:21:25;;;;;;;43.22;40.15;;;21.30;99.90;;;;;;5009481;28;20042;-74
2023/08/15 02:23:51;;;;;;;41.20;38.13;;;21.30;99.90;;;;;;5009618;28;20038;-73
2023/08/15 02:26:18;;;;;;;51.28;47.95;;;21.30;99.90;;;;;;5010403;28;20029;-73
2023/08/15 02:28:44;;;;;;;93.82;88.72;;;21.40;99.90;;;;;;5010860;28;20026;-74
2023/08/15 02:31:10;;;;;;;60.67;56.60;;;21.40;99.90;;;;;;5008731;28;20376;-73
2023/08/15 02:33:36;;;;;;;66.47;62.22;;;21.40;99.90;;;;;;5009684;28;20042;-73
2023/08/15 02:36:06;;;;;;;74.75;70.22;;;21.40;99.90;;;;;;5010718;28;20030;-74
2023/08/15 02:38:33;;;;;;;55.72;52.15;;;21.40;99.90;;;;;;5010843;28;20022;-73
2023/08/15 02:40:59;;;;;;;40.85;38.15;;;21.40;99.90;;;;;;5010344;28;20022;-73
2023/08/15 02:43:25;;;;;;;44.50;41.55;;;21.40;99.90;;;;;;5011952;28;20049;-73
2023/08/15 02:45:51;;;;;;;43.38;40.40;;;21.40;99.90;;;;;;5011275;28;20526;-73
2023/08/15 02:48:17;;;;;;;39.30;36.55;;;21.40;99.90;;;;;;5011848;28;20038;-73
2023/08/15 02:50:44;;;;;;;47.72;44.70;;;21.40;99.90;;;;;;5013179;28;20460;-74
2023/08/15 02:53:10;;;;;;;41.95;38.75;;;21.40;99.90;;;;;;5015490;28;20052;-73
2023/08/15 02:55:36;;;;;;;48.60;45.20;;;21.40;99.90;;;;;;5013706;28;20494;-73
2023/08/15 02:58:02;;;;;;;48.22;44.97;;;21.30;99.90;;;;;;5014042;28;20030;-73
2023/08/15 03:00:28;;;;;;;54.65;50.72;;;21.20;99.90;;;;;;5014847;28;20484;-73
2023/08/15 03:02:54;;;;;;;69.78;64.80;;;21.20;99.90;;;;;;5014285;28;20037;-73
2023/08/15 03:05:20;;;;;;;78.05;73.43;;;21.10;99.90;;;;;;5015079;28;20464;-73
2023/08/15 03:07:47;;;;;;;61.08;56.72;;;21.10;99.90;;;;;;5015212;28;20097;-74
2023/08/15 03:10:13;;;;;;;57.15;53.65;;;21.00;99.90;;;;;;5013670;28;20506;-73
2023/08/15 03:12:39;;;;;;;61.58;58.13;;;21.10;99.90;;;;;;5015195;28;20045;-74
2023/08/15 03:15:05;;;;;;;67.07;62.95;;;21.10;99.90;;;;;;5014912;28;20038;-73
2023/08/15 03:17:34;;;;;;;64.07;60.13;;;21.10;99.90;;;;;;5013414;28;20041;-73
2023/08/15 03:20:00;;;;;;;45.83;42.80;;;21.10;99.90;;;;;;5015025;28;20037;-73
2023/08/15 03:22:26;;;;;;;41.97;39.08;;;21.10;99.90;;;;;;5014677;28;20034;-73
2023/08/15 03:24:53;;;;;;;58.33;54.30;;;21.10;99.90;;;;;;5014816;28;20073;-73
2023/08/15 03:27:19;;;;;;;60.88;57.25;;;21.10;99.90;;;;;;5013482;28;20037;-73
2023/08/15 03:29:45;;;;;;;38.65;35.83;;;21.00;99.90;;;;;;5014875;28;20042;-73
2023/08/15 03:32:11;;;;;;;36.03;33.42;;;20.90;99.90;;;;;;5014019;28;20038;-73
2023/08/15 03:34:37;;;;;;;37.47;34.60;;;21.00;99.90;;;;;;5014730;28;20045;-73
2023/08/15 03:37:03;;;;;;;40.03;37.08;;;20.90;99.90;;;;;;5014447;28;20026;-73
2023/08/15 03:39:29;;;;;;;38.33;35.83;;;21.00;99.90;;;;;;5014544;28;20409;-73
2023/08/15 03:41:55;;;;;;;36.45;33.97;;;21.00;99.90;;;;;;5014341;28;20033;-73
2023/08/15 03:44:21;;;;;;;37.28;34.40;;;20.90;99.90;;;;;;5014590;28;20387;-73
2023/08/15 03:46:48;;;;;;;37.45;34.72;;;20.90;99.90;;;;;;5013895;28;20034;-73
2023/08/15 03:49:14;;;;;;;47.50;44.53;;;20.90;99.90;;;;;;5014313;28;20030;-73
2023/08/15 03:51:40;;;;;;;44.92;41.55;;;20.90;99.90;;;;;;5014068;28;20057;-73
2023/08/15 03:54:08;;;;;;;71.63;67.22;;;20.80;99.90;;;;;;5014207;28;20077;-73
2023/08/15 03:56:34;;;;;;;44.75;41.70;;;20.80;99.90;;;;;;5014463;28;20038;-73
2023/08/15 03:59:01;;;;;;;44.30;41.20;;;20.80;99.90;;;;;;5014343;28;20030;-73
2023/08/15 04:01:27;;;;;;;42.33;39.72;;;20.80;99.90;;;;;;5013659;28;20041;-73
2023/08/15 04:03:53;;;;;;;55.97;52.42;;;20.80;99.90;;;;;;5014213;28;20045;-73
2023/08/15 04:06:19;;;;;;;53.08;49.53;;;20.70;99.90;;;;;;5013909;28;20490;-73
2023/08/15 04:08:45;;;;;;;40.40;37.67;;;20.70;99.90;;;;;;5012607;28;20045;-73
2023/08/15 04:11:11;;;;;;;45.30;42.30;;;20.70;99.90;;;;;;5012650;28;20030;-73
2023/08/15 04:13:37;;;;;;;48.30;44.95;;;20.70;99.90;;;;;;5014046;28;20030;-73
2023/08/15 04:16:03;;;;;;;45.60;42.67;;;20.70;99.90;;;;;;4995323;28;20034;-74
2023/08/15 04:18:29;;;;;;;45.53;42.05;;;20.70;99.90;;;;;;5013954;28;20037;-73
2023/08/15 04:20:56;;;;;;;50.70;47.38;;;20.70;99.90;;;;;;5012532;28;20034;-74
2023/08/15 04:23:22;;;;;;;56.65;52.70;;;20.70;99.90;;;;;;5013432;28;20041;-73
2023/08/15 04:25:48;;;;;;;54.38;50.80;;;20.60;99.90;;;;;;5012385;28;20030;-73
2023/08/15 04:28:14;;;;;;;45.00;41.75;;;20.60;99.90;;;;;;5012626;28;20041;-73
2023/08/15 04:30:41;;;;;;;47.50;44.40;;;20.60;99.90;;;;;;5011825;28;20030;-73
2023/08/15 04:33:07;;;;;;;46.60;43.65;;;20.60;99.90;;;;;;5012539;28;20026;-73
2023/08/15 04:35:33;;;;;;;50.90;47.20;;;20.60;99.90;;;;;;5012086;28;20041;-73
2023/08/15 04:38:00;;;;;;;47.70;44.88;;;20.50;99.90;;;;;;5013116;28;20040;-73
2023/08/15 04:40:33;;;;;;;47.80;44.20;;;20.50;99.90;;;;;;5012475;28;20497;-73
2023/08/15 04:42:59;;;;;;;62.65;58.65;;;20.50;99.90;;;;;;5012482;28;20368;-73
2023/08/15 04:45:26;;;;;;;68.22;64.13;;;20.60;99.90;;;;;;5011885;28;20042;-74
2023/08/15 04:47:52;;;;;;;56.45;52.70;;;20.60;99.90;;;;;;5011694;28;20033;-73
2023/08/15 04:50:18;;;;;;;52.22;48.80;;;20.50;99.90;;;;;;5013175;28;20038;-73
2023/08/15 04:52:45;;;;;;;57.58;54.15;;;20.50;99.90;;;;;;5011961;28;20046;-73
2023/08/15 04:55:13;;;;;;;56.58;52.60;;;20.50;99.90;;;;;;5013247;28;20033;-74
2023/08/15 04:57:39;;;;;;;53.58;49.97;;;20.30;99.90;;;;;;5011986;28;20308;-73
2023/08/15 05:00:11;;;;;;;49.05;45.75;;;20.30;99.90;;;;;;5011633;28;20046;-74
2023/08/15 05:02:37;;;;;;;43.30;40.58;;;20.00;99.90;;;;;;5012132;28;20065;-74
2023/08/15 05:05:09;;;;;;;48.90;45.97;;;19.90;99.90;;;;;;5011550;28;20049;-74
2023/08/15 05:07:35;;;;;;;51.17;47.65;;;19.90;99.90;;;;;;5011532;28;20025;-73
2023/08/15 05:10:02;;;;;;;69.50;65.25;;;20.10;99.90;;;;;;5011979;28;20052;-74
2023/08/15 05:12:28;;;;;;;63.53;59.42;;;20.10;99.90;;;;;;5012566;28;20100;-73
2023/08/15 05:14:54;;;;;;;49.90;46.58;;;20.20;99.90;;;;;;5011649;28;20463;-73
2023/08/15 05:17:20;;;;;;;47.33;44.00;;;20.20;99.90;;;;;;5012239;28;20037;-74
2023/08/15 05:19:46;;;;;;;54.05;50.45;;;20.20;99.90;;;;;;5011335;28;20505;-73
2023/08/15 05:22:12;;;;;;;62.80;59.05;;;20.20;99.90;;;;;;5012667;28;20030;-74
2023/08/15 05:24:38;;;;;;;85.68;80.90;;;20.20;99.90;;;;;;5012717;28;20372;-74
2023/08/15 05:27:04;;;;;;;55.20;51.67;;;20.30;99.90;;;;;;5011430;28;20042;-74
2023/08/15 05:29:30;;;;;;;61.22;57.28;;;20.30;99.90;;;;;;5012831;28;20030;-74
2023/08/15 05:31:56;;;;;;;57.60;53.90;;;20.30;99.90;;;;;;5010686;28;20053;-73
2023/08/15 05:34:23;;;;;;;58.08;54.30;;;20.40;99.90;;;;;;5011195;28;20030;-73
2023/08/15 05:36:49;;;;;;;73.80;69.32;;;20.30;99.90;;;;;;5012442;28;20041;-74
2023/08/15 05:39:15;;;;;;;58.78;55.30;;;20.50;99.90;;;;;;5012717;28;20391;-73
2023/08/15 05:41:41;;;;;;;53.10;49.65;;;20.50;99.90;;;;;;5011132;28;20042;-73
2023/08/15 05:44:07;;;;;;;57.25;53.67;;;20.40;99.90;;;;;;5012628;28;20387;-74
2023/08/15 05:46:33;;;;;;;53.53;49.90;;;20.00;99.90;;;;;;5011952;28;20045;-74
2023/08/15 05:48:59;;;;;;;51.75;47.85;;;19.70;99.90;;;;;;5012234;28;20026;-74
2023/08/15 05:51:25;;;;;;;52.75;49.22;;;19.80;99.90;;;;;;5010934;28;20041;-74
2023/08/15 05:53:51;;;;;;;46.70;43.58;;;20.00;99.90;;;;;;5012415;28;20411;-74
2023/08/15 05:56:17;;;;;;;45.70;42.28;;;20.10;99.90;;;;;;5012100;28;20038;-73
2023/08/15 05:58:43;;;;;;;51.03;47.63;;;20.20;99.90;;;;;;5012390;28;20049;-73
2023/08/15 06:01:09;;;;;;;52.63;48.92;;;20.30;99.90;;;;;;5010547;28;20038;-74
2023/08/15 06:03:36;;;;;;;50.00;46.15;;;20.00;99.90;;;;;;5010810;28;20363;-74
2023/08/15 06:06:02;;;;;;;52.05;47.65;;;19.80;99.90;;;;;;5012114;28;20037;-74
2023/08/15 06:08:28;;;;;;;64.47;60.17;;;19.80;99.90;;;;;;5012351;28;20075;-74
2023/08/15 06:10:54;;;;;;;76.72;72.13;;;19.90;99.90;;;;;;5012604;28;20042;-74
2023/08/15 06:13:20;;;;;;;46.95;43.78;;;20.10;99.90;;;;;;5011136;28;20494;-73
2023/08/15 06:15:46;;;;;;;53.78;50.08;;;20.20;99.90;;;;;;5011649;28;20045;-73
2023/08/15 06:18:13;;;;;;;49.90;46.65;;;19.90;99.90;;;;;;5012038;28;20455;-73
2023/08/15 06:20:39;;;;;;;48.78;45.35;;;19.70;99.90;;;;;;5012019;28;20391;-73
2023/08/15 06:23:05;;;;;;;50.20;46.63;;;19.80;99.90;;;;;;5012308;28;20026;-74
2023/08/15 06:25:31;;;;;;;47.42;44.05;;;20.00;99.90;;;;;;5013165;28;20044;-73
2023/08/15 06:27:57;;;;;;;45.92;42.53;;;20.10;99.90;;;;;;5016061;28;20029;-76
2023/08/15 06:30:24;;;;;;;43.97;40.70;;;20.20;99.90;;;;;;5015190;28;20502;-75
2023/08/15 06:32:50;;;;;;;45.95;42.35;;;20.30;99.90;;;;;;5015766;28;20483;-74
2023/08/15 06:35:16;;;;;;;51.38;47.75;;;20.30;99.90;;;;;;5014355;28;20038;-74
2023/08/15 06:37:42;;;;;;;51.45;48.10;;;20.10;99.90;;;;;;5015718;28;20467;-73
2023/08/15 06:40:09;;;;;;;49.30;45.65;;;20.00;99.90;;;;;;5015981;28;20034;-74
2023/08/15 06:42:35;;;;;;;54.60;50.60;;;20.10;99.90;;;;;;5015458;28;20034;-73
2023/08/15 06:45:07;;;;;;;59.88;55.58;;;20.20;99.90;;;;;;5014434;28;20069;-74
2023/08/15 06:47:33;;;;;;;51.35;47.90;;;20.20;99.90;;;;;;5014269;28;20037;-74
2023/08/15 06:49:59;;;;;;;63.25;58.80;;;20.20;99.90;;;;;;5015536;28;20034;-73
2023/08/15 06:52:25;;;;;;;60.40;56.55;;;20.30;99.90;;;;;;5015082;28;20053;-73
2023/08/15 06:54:51;;;;;;;59.00;54.83;;;20.30;99.90;;;;;;5015762;28;20034;-73
2023/08/15 06:57:17;;;;;;;38.25;35.33;;;20.40;99.90;;;;;;5015080;28;20037;-73
2023/08/15 06:59:43;;;;;;;38.67;35.67;;;20.40;99.90;;;;;;5015493;28;20049;-73
2023/08/15 07:02:10;;;;;;;40.50;37.65;;;20.60;99.90;;;;;;5013292;28;20026;-73
2023/08/15 07:04:40;;;;;;;61.10;56.78;;;20.70;99.90;;;;;;5014175;28;20041;-73
2023/08/15 07:07:08;;;;;;;38.08;35.30;;;21.00;99.90;;;;;;5013791;28;20042;-73
2023/08/15 07:09:35;;;;;;;46.10;43.05;;;21.20;99.90;;;;;;5014079;28;20026;-74
2023/08/15 07:12:05;;;;;;;20.55;18.65;;;21.30;99.90;;;;;;5013477;28;20042;-73
2023/08/15 07:14:34;;;;;;;24.38;22.20;;;21.30;99.90;;;;;;5013977;28;20052;-74
2023/08/15 07:17:00;;;;;;;27.60;25.45;;;21.40;99.90;;;;;;5014328;28;20058;-76
2023/08/15 07:19:26;;;;;;;36.47;34.22;;;21.40;99.90;;;;;;5013946;28;20030;-74
2023/08/15 07:21:52;;;;;;;47.45;44.15;;;21.50;99.90;;;;;;5014629;28;20475;-74
2023/08/15 07:24:18;;;;;;;55.03;51.53;;;21.50;99.90;;;;;;5014977;28;20030;-74
2023/08/15 07:26:45;;;;;;;49.40;45.95;;;21.60;99.90;;;;;;5014985;28;20463;-75
2023/08/15 07:29:11;;;;;;;62.17;58.50;;;21.50;99.90;;;;;;5014986;28;20383;-75
2023/08/15 07:31:38;;;;;;;41.38;38.13;;;21.30;99.90;;;;;;5012495;28;20041;-74
2023/08/15 07:34:04;;;;;;;43.30;40.35;;;21.40;99.90;;;;;;5013781;28;20033;-75
2023/08/15 07:36:30;;;;;;;40.25;37.47;;;21.60;99.90;;;;;;5014173;28;20453;-74
2023/08/15 07:38:56;;;;;;;38.30;35.47;;;21.60;99.90;;;;;;4997265;28;20041;-74
2023/08/15 07:41:23;;;;;;;35.17;32.83;;;21.50;99.90;;;;;;5013310;28;20467;-74
2023/08/15 07:43:49;;;;;;;36.03;33.42;;;21.50;99.90;;;;;;5013540;28;20030;-74
2023/08/15 07:46:15;;;;;;;21.58;19.67;;;21.70;99.90;;;;;;5013725;28;20391;-75
2023/08/15 07:48:42;;;;;;;26.05;24.15;;;21.90;99.90;;;;;;5014447;28;20033;-74
2023/08/15 07:51:08;;;;;;;28.63;26.33;;;22.00;99.90;;;;;;5014047;28;20034;-74
2023/08/15 07:53:34;;;;;;;30.02;27.88;;;22.20;99.90;;;;;;5014520;28;20490;-74
2023/08/15 07:56:00;;;;;;;44.42;41.63;;;22.20;99.90;;;;;;5014059;28;20029;-74
2023/08/15 07:58:27;;;;;;;43.20;40.38;;;22.30;99.90;;;;;;5014282;28;20414;-75
2023/08/15 08:00:53;;;;;;;57.13;53.70;;;22.40;99.90;;;;;;5013496;28;20030;-74
2023/08/15 08:03:19;;;;;;;39.17;36.70;;;22.50;99.90;;;;;;5014335;28;20026;-74
2023/08/15 08:05:45;;;;;;;82.55;78.03;;;22.60;99.90;;;;;;5013918;28;20046;-75
2023/08/15 08:08:13;;;;;;;124.35;117.32;;;22.60;99.90;;;;;;5014110;28;20017;-75
2023/08/15 08:10:40;;;;;;;125.57;118.88;;;22.70;99.90;;;;;;5012546;28;20030;-74
2023/08/15 08:13:06;;;;;;;127.78;121.22;;;22.70;99.90;;;;;;5014315;28;20029;-74
2023/08/15 08:15:33;;;;;;;115.35;109.22;;;22.70;99.90;;;;;;5013005;28;20030;-74
2023/08/15 08:17:59;;;;;;;106.70;100.82;;;22.70;99.90;;;;;;5012889;28;20038;-74
2023/08/15 08:20:26;;;;;;;87.93;83.20;;;22.70;99.90;;;;;;5013633;28;20387;-74
2023/08/15 08:22:52;;;;;;;81.65;77.03;;;22.80;99.90;;;;;;5014007;28;20030;-75
2023/08/15 08:25:21;;;;;;;69.00;65.03;;;22.80;99.90;;;;;;5012957;28;20518;-75
2023/08/15 08:27:47;;;;;;;71.72;67.50;;;22.80;99.90;;;;;;4995774;28;20045;-74
2023/08/15 08:30:15;;;;;;;64.38;60.63;;;23.00;99.90;;;;;;5011885;28;20093;-75
2023/08/15 08:32:41;;;;;;;68.68;64.53;;;23.10;99.90;;;;;;5012441;28;20031;-75
2023/08/15 08:35:08;;;;;;;72.25;68.25;;;23.20;99.90;;;;;;5013865;28;20099;-75
2023/08/15 08:37:34;;;;;;;67.55;63.83;;;23.20;99.90;;;;;;5012211;28;20034;-75
2023/08/15 08:40:00;;;;;;;50.15;47.20;;;23.30;99.90;;;;;;5013569;28;20056;-74
2023/08/15 08:42:26;;;;;;;79.95;75.55;;;23.30;99.90;;;;;;5011848;28;20045;-75
2023/08/15 08:44:52;;;;;;;139.13;131.98;;;23.30;99.90;;;;;;5013485;28;20049;-75
2023/08/15 08:47:19;;;;;;;268.30;255.10;;;23.20;99.90;;;;;;5011100;28;20038;-75
2023/08/15 08:49:45;;;;;;;230.13;218.95;;;23.10;99.90;;;;;;5012796;28;20029;-75
2023/08/15 08:52:13;;;;;;;103.55;97.93;;;23.00;99.90;;;;;;5013030;28;20061;-75
2023/08/15 08:54:40;;;;;;;121.68;115.40;;;23.00;99.90;;;;;;5011885;28;20033;-75
2023/08/15 08:57:06;;;;;;;112.72;106.75;;;23.00;99.90;;;;;;5012621;28;20074;-74
2023/08/15 08:59:33;;;;;;;103.60;98.10;;;23.00;99.90;;;;;;5013247;28;20033;-75
2023/08/15 09:01:59;;;;;;;163.63;155.65;;;23.00;99.90;;;;;;5011331;28;20038;-75
2023/08/15 09:04:25;;;;;;;240.90;229.15;;;23.00;99.90;;;;;;5011994;28;20030;-75
2023/08/15 09:06:51;;;;;;;183.77;174.73;;;23.00;99.90;;;;;;5012913;28;20045;-75
2023/08/15 09:09:17;;;;;;;131.40;124.65;;;22.80;99.90;;;;;;5013141;28;20379;-75
2023/08/15 09:11:45;;;;;;;129.77;123.22;;;22.90;99.90;;;;;;5012455;28;20026;-74
2023/08/15 09:14:11;;;;;;;105.35;99.82;;;23.00;99.90;;;;;;5011950;28;20065;-75
2023/08/15 09:16:47;;;;;;;95.05;89.47;;;23.00;99.90;;;;;;4994396;28;20048;-75
2023/08/15 09:19:14;;;;;;;91.72;86.78;;;23.10;99.90;;;;;;5011714;28;20065;-75
2023/08/15 09:21:41;;;;;;;80.40;76.00;;;23.20;99.90;;;;;;5011289;28;20033;-74
2023/08/15 09:24:07;;;;;;;62.03;58.55;;;23.20;99.90;;;;;;5011654;28;20033;-75
2023/08/15 09:26:37;;;;;;;56.97;53.63;;;23.40;99.90;;;;;;5010967;28;20483;-74
2023/08/15 09:29:03;;;;;;;92.20;87.28;;;23.40;99.90;;;;;;5011711;28;20029;-74
2023/08/15 09:31:29;;;;;;;85.05;80.43;;;23.20;99.90;;;;;;5010745;28;20372;-75
2023/08/15 09:33:56;;;;;;;83.60;79.05;;;23.40;99.90;;;;;;5012737;28;20030;-74
2023/08/15 09:36:26;;;;;;;88.20;83.50;;;23.60;99.90;;;;;;5011033;28;20410;-74
2023/08/15 09:38:55;;;;;;;73.25;69.40;;;23.80;99.90;;;;;;5011475;28;20037;-74
2023/08/15 09:41:24;;;;;;;85.68;81.07;;;23.90;99.90;;;;;;5011007;28;20046;-74
2023/08/15 09:43:53;;;;;;;99.22;94.18;;;24.10;99.90;;;;;;5011362;28;20030;-74
2023/08/15 09:46:20;;;;;;;62.17;58.80;;;24.20;99.90;;;;;;5010603;28;20049;-74
2023/08/15 09:48:47;;;;;;;61.25;58.00;;;24.20;99.90;;;;;;5010630;28;20387;-74
2023/08/15 09:51:16;;;;;;;66.00;62.42;;;24.30;99.90;;;;;;5010885;28;20049;-74
2023/08/15 09:53:44;;;;;;;66.93;63.30;;;24.30;99.90;;;;;;4994773;28;20037;-74
2023/08/15 09:56:10;;;;;;;70.43;66.82;;;24.30;99.90;;;;;;5010880;28;20046;-74
2023/08/15 09:58:38;;;;;;;70.60;66.68;;;24.30;99.90;;;;;;5011101;28;20037;-74
2023/08/15 10:01:10;;;;;;;71.28;67.45;;;24.20;99.90;;;;;;5016627;28;20053;-74
2023/08/15 10:03:38;;;;;;;67.75;64.10;;;24.20;99.90;;;;;;5017664;28;20030;-74
2023/08/15 10:06:06;;;;;;;69.15;65.60;;;24.20;99.90;;;;;;5017305;28;20049;-74
2023/08/15 10:08:32;;;;;;;65.03;61.47;;;24.10;99.90;;;;;;5018925;28;20026;-75
2023/08/15 10:10:58;;;;;;;77.03;73.07;;;24.10;99.90;;;;;;5018141;28;20040;-73
2023/08/15 10:13:26;;;;;;;73.50;69.80;;;24.00;99.90;;;;;;5017786;28;20033;-74
2023/08/15 10:15:53;;;;;;;95.00;90.25;;;24.00;99.90;;;;;;5016914;28;20044;-74
2023/08/15 10:18:19;;;;;;;76.00;72.20;;;24.00;99.90;;;;;;5018650;28;20434;-73
2023/08/15 10:20:53;;;;;;;64.45;61.20;;;24.10;99.90;;;;;;5017470;28;20033;-74
2023/08/15 10:23:30;;;;;;;67.13;63.60;;;24.10;99.90;;;;;;5017737;28;20037;-74
2023/08/15 10:25:57;;;;;;;65.18;61.65;;;24.20;99.90;;;;;;5018094;28;20038;-74
2023/08/15 10:28:25;;;;;;;71.45;67.70;;;24.30;99.90;;;;;;5001036;28;20038;-74
2023/08/15 10:30:51;;;;;;;65.00;61.50;;;24.40;99.90;;;;;;5016707;28;20026;-74
2023/08/15 10:33:19;;;;;;;75.05;70.97;;;24.40;99.90;;;;;;5018874;28;20483;-74
2023/08/15 10:36:11;;;;;;;60.67;57.33;;;24.40;99.90;;;;;;5017298;28;20049;-74
2023/08/15 10:38:43;;;;;;;66.28;62.92;;;24.50;99.90;;;;;;5015026;28;20038;-74
2023/08/15 10:41:14;;;;;;;90.28;85.70;;;24.60;99.90;;;;;;5017099;28;20050;-74
2023/08/15 10:43:40;;;;;;;81.97;77.90;;;24.50;99.90;;;;;;5017386;28;20474;-74
2023/08/15 10:46:07;;;;;;;87.82;83.32;;;24.60;99.90;;;;;;5016604;28;20057;-74
2023/08/15 10:48:41;;;;;;;102.60;97.40;;;24.60;99.90;;;;;;5017340;28;20030;-74
2023/08/15 10:51:27;;;;;;;100.82;95.75;;;24.60;99.90;;;;;;5016816;28;20048;-74
2023/08/15 10:54:20;;;;;;;63.45;60.00;;;24.60;99.90;;;;;;5017716;28;20053;-74
2023/08/15 10:56:46;;;;;;;59.72;56.55;;;24.70;99.90;;;;;;5016748;28;20109;-74
2023/08/15 10:59:14;;;;;;;64.80;61.50;;;24.80;99.90;;;;;;5017086;28;20026;-74
2023/08/15 11:01:41;;;;;;;70.57;66.93;;;24.80;99.90;;;;;;5016592;28;20045;-73
2023/08/15 11:04:10;;;;;;;122.60;116.63;;;24.90;99.90;;;;;;5018592;28;20041;-74
2023/08/15 11:06:47;;;;;;;100.50;95.38;;;25.00;99.90;;;;;;5016613;28;20054;-74
2023/08/15 11:09:13;;;;;;;120.90;115.10;;;25.20;99.90;;;;;;5018074;28;20026;-74
2023/08/15 11:11:40;;;;;;;72.10;68.57;;;25.40;99.90;;;;;;5013774;28;20050;-73
2023/08/15 11:14:15;;;;;;;74.35;70.70;;;25.50;99.90;;;;;;5014068;28;20030;-74
2023/08/15 11:16:41;;;;;;;69.40;65.93;;;25.60;99.90;;;;;;5014322;28;20483;-74
2023/08/15 11:19:07;;;;;;;65.47;62.25;;;25.70;99.90;;;;;;5014104;28;20034;-74
2023/08/15 11:21:33;;;;;;;64.57;61.30;;;25.80;99.90;;;;;;5013576;28;20029;-74
2023/08/15 11:23:59;;;;;;;57.13;54.08;;;25.80;99.90;;;;;;4996685;28;20049;-74
2023/08/15 11:26:26;;;;;;;56.95;53.97;;;25.80;99.90;;;;;;5014526;28;20530;-74
2023/08/15 11:28:52;;;;;;;58.85;55.80;;;25.80;99.90;;;;;;4997452;28;20391;-74
2023/08/15 11:31:18;;;;;;;54.53;51.65;;;25.80;99.90;;;;;;5012876;28;20057;-74
2023/08/15 11:33:44;;;;;;;57.33;54.47;;;25.80;99.90;;;;;;5013719;28;20041;-74
2023/08/15 11:36:10;;;;;;;63.72;60.47;;;25.80;99.90;;;;;;4997208;28;20029;-74
2023/08/15 11:38:37;;;;;;;59.75;56.72;;;25.80;99.90;;;;;;5013096;28;20423;-74
2023/08/15 11:41:04;;;;;;;48.35;45.65;;;25.50;99.90;;;;;;5013153;28;20026;-74
2023/08/15 11:43:33;;;;;;;64.95;61.67;;;25.40;99.90;;;;;;5013206;28;20065;-74
2023/08/15 11:46:03;;;;;;;66.40;62.72;;;25.30;99.90;;;;;;5013812;28;20036;-74
2023/08/15 11:48:30;;;;;;;51.47;48.85;;;25.40;99.90;;;;;;5013398;28;20034;-74
2023/08/15 11:50:57;;;;;;;80.43;76.40;;;25.40;99.90;;;;;;5012550;28;20034;-73
2023/08/15 11:53:23;;;;;;;79.00;75.13;;;25.40;99.90;;;;;;5013354;28;20042;-74
2023/08/15 11:55:49;;;;;;;62.10;58.95;;;25.40;99.90;;;;;;5013063;28;20030;-74
2023/08/15 11:58:28;;;;;;;74.28;70.57;;;25.20;99.90;;;;;;5013168;28;20468;-74
2023/08/15 12:01:03;;;;;;;86.35;82.03;;;25.10;99.90;;;;;;5013675;28;20034;-74
2023/08/15 12:03:30;;;;;;;79.38;75.45;;;25.00;99.90;;;;;;5013221;28;20037;-74
2023/08/15 12:05:58;;;;;;;75.57;71.82;;;25.00;99.90;;;;;;5013556;28;20498;-74
2023/08/15 12:08:28;;;;;;;55.88;53.03;;;25.00;99.90;;;;;;5012982;28;20037;-74
2023/08/15 12:10:55;;;;;;;57.63;54.42;;;25.00;99.90;;;;;;5012689;28;20034;-74
2023/08/15 12:13:34;;;;;;;60.50;57.35;;;25.10;99.90;;;;;;5012724;28;20466;-74
2023/08/15 12:16:00;;;;;;;57.67;54.72;;;25.20;99.90;;;;;;5013343;28;20038;-74
2023/08/15 12:18:27;;;;;;;55.63;52.85;;;25.10;99.90;;;;;;4996712;28;20026;-74
2023/08/15 12:20:53;;;;;;;68.90;65.47;;;25.30;99.90;;;;;;5013494;28;20391;-75
2023/08/15 12:23:19;;;;;;;43.55;41.25;;;25.40;99.90;;;;;;5011482;28;20586;-74
2023/08/15 12:25:45;;;;;;;51.53;48.78;;;25.50;99.90;;;;;;5012407;28;20034;-74